sensor_id;sensor_type;location;lat;lon;timestamp;P1;durP1;ratioP1;P2;durP2;ratioP2
12332;SDS011;6232;48.094;11.288;2023-04-15T00:00:44;7.00;;;3.47;;
12332;SDS011;6232;48.094;11.288;2023-04-15T00:03:29;6.50;;;3.40;;
12332;SDS011;6232;48.094;11.288;2023-04-15T00:06:15;4.87;;;3.60;;
12332;SDS011;6232;48.094;11.288;2023-04-15T00:09:01;5.47;;;3.80;;
12332;SDS011;6232;48.094;11.288;2023-04-15T00:11:46;4.80;;;3.57;;
12332;SDS011;6232;48.094;11.288;2023-04-15T00:14:33;8.73;;;4.07;;
12332;SDS011;6232;48.094;11.288;2023-04-15T00:17:19;7.03;;;4.30;;
12332;SDS011;6232;48.094;11.288;2023-04-15T00:20:05;12.90;;;3.93;;
12332;SDS011;6232;48.094;11.288;2023-04-15T00:22:51;6.60;;;3.83;;
12332;SDS011;6232;48.094;11.288;2023-04-15T00:25:36;8.80;;;3.93;;
12332;SDS011;6232;48.094;11.288;2023-04-15T00:28:22;3.97;;;3.30;;
12332;SDS011;6232;48.094;11.288;2023-04-15T00:31:07;3.80;;;3.40;;
12332;SDS011;6232;48.094;11.288;2023-04-15T00:33:54;6.53;;;3.70;;
12332;SDS011;6232;48.094;11.288;2023-04-15T00:36:39;4.30;;;3.20;;
12332;SDS011;6232;48.094;11.288;2023-04-15T00:39:25;6.73;;;3.97;;
12332;SDS011;6232;48.094;11.288;2023-04-15T00:42:12;5.63;;;2.97;;
12332;SDS011;6232;48.094;11.288;2023-04-15T00:44:58;5.10;;;4.00;;
12332;SDS011;6232;48.094;11.288;2023-04-15T00:47:43;6.30;;;3.70;;
12332;SDS011;6232;48.094;11.288;2023-04-15T00:50:29;10.40;;;4.30;;
12332;SDS011;6232;48.094;11.288;2023-04-15T00:53:14;5.97;;;3.67;;
12332;SDS011;6232;48.094;11.288;2023-04-15T00:56:00;14.73;;;3.73;;
12332;SDS011;6232;48.094;11.288;2023-04-15T00:58:46;6.50;;;4.00;;
12332;SDS011;6232;48.094;11.288;2023-04-15T01:01:33;3.87;;;3.57;;
12332;SDS011;6232;48.094;11.288;2023-04-15T01:04:18;5.63;;;4.43;;
12332;SDS011;6232;48.094;11.288;2023-04-15T01:07:04;4.13;;;3.43;;
12332;SDS011;6232;48.094;11.288;2023-04-15T01:09:49;11.97;;;4.40;;
12332;SDS011;6232;48.094;11.288;2023-04-15T01:12:35;4.40;;;4.00;;
12332;SDS011;6232;48.094;11.288;2023-04-15T01:15:22;7.40;;;3.40;;
12332;SDS011;6232;48.094;11.288;2023-04-15T01:18:08;5.43;;;3.90;;
12332;SDS011;6232;48.094;11.288;2023-04-15T01:20:53;12.43;;;4.30;;
12332;SDS011;6232;48.094;11.288;2023-04-15T01:23:39;12.40;;;4.40;;
12332;SDS011;6232;48.094;11.288;2023-04-15T01:26:25;6.00;;;4.80;;
12332;SDS011;6232;48.094;11.288;2023-04-15T01:29:10;8.13;;;4.03;;
12332;SDS011;6232;48.094;11.288;2023-04-15T01:31:56;8.43;;;4.80;;
12332;SDS011;6232;48.094;11.288;2023-04-15T01:34:42;4.43;;;3.63;;
12332;SDS011;6232;48.094;11.288;2023-04-15T01:37:27;13.57;;;4.60;;
12332;SDS011;6232;48.094;11.288;2023-04-15T01:40:13;5.67;;;3.90;;
12332;SDS011;6232;48.094;11.288;2023-04-15T01:43:00;5.50;;;3.67;;
12332;SDS011;6232;48.094;11.288;2023-04-15T01:45:46;10.43;;;4.67;;
12332;SDS011;6232;48.094;11.288;2023-04-15T01:48:34;5.07;;;3.77;;
12332;SDS011;6232;48.094;11.288;2023-04-15T01:51:20;4.30;;;3.50;;
12332;SDS011;6232;48.094;11.288;2023-04-15T01:54:06;5.03;;;3.63;;
12332;SDS011;6232;48.094;11.288;2023-04-15T01:56:52;6.17;;;4.47;;
12332;SDS011;6232;48.094;11.288;2023-04-15T01:59:37;8.07;;;4.10;;
12332;SDS011;6232;48.094;11.288;2023-04-15T02:02:23;19.80;;;4.40;;
12332;SDS011;6232;48.094;11.288;2023-04-15T02:05:09;13.63;;;4.43;;
12332;SDS011;6232;48.094;11.288;2023-04-15T02:07:55;6.50;;;4.00;;
12332;SDS011;6232;48.094;11.288;2023-04-15T02:10:40;5.00;;;3.60;;
12332;SDS011;6232;48.094;11.288;2023-04-15T02:13:26;4.80;;;3.97;;
12332;SDS011;6232;48.094;11.288;2023-04-15T02:16:15;5.70;;;3.90;;
12332;SDS011;6232;48.094;11.288;2023-04-15T02:19:01;6.63;;;4.13;;
12332;SDS011;6232;48.094;11.288;2023-04-15T02:21:48;3.87;;;3.53;;
12332;SDS011;6232;48.094;11.288;2023-04-15T02:24:33;4.90;;;3.50;;
12332;SDS011;6232;48.094;11.288;2023-04-15T02:27:19;5.47;;;3.80;;
12332;SDS011;6232;48.094;11.288;2023-04-15T02:30:05;7.30;;;4.23;;
12332;SDS011;6232;48.094;11.288;2023-04-15T02:32:51;5.50;;;4.53;;
12332;SDS011;6232;48.094;11.288;2023-04-15T02:35:37;3.80;;;3.50;;
12332;SDS011;6232;48.094;11.288;2023-04-15T02:38:26;10.43;;;3.80;;
12332;SDS011;6232;48.094;11.288;2023-04-15T02:41:11;3.50;;;3.20;;
12332;SDS011;6232;48.094;11.288;2023-04-15T02:43:57;8.33;;;3.63;;
12332;SDS011;6232;48.094;11.288;2023-04-15T02:46:43;12.83;;;3.77;;
12332;SDS011;6232;48.094;11.288;2023-04-15T02:49:29;4.10;;;2.80;;
12332;SDS011;6232;48.094;11.288;2023-04-15T02:52:15;5.33;;;3.47;;
12332;SDS011;6232;48.094;11.288;2023-04-15T02:55:00;10.20;;;4.10;;
12332;SDS011;6232;48.094;11.288;2023-04-15T02:57:46;3.83;;;3.30;;
12332;SDS011;6232;48.094;11.288;2023-04-15T03:00:32;6.13;;;2.90;;
12332;SDS011;6232;48.094;11.288;2023-04-15T03:03:18;5.10;;;3.47;;
12332;SDS011;6232;48.094;11.288;2023-04-15T03:06:03;3.30;;;2.67;;
12332;SDS011;6232;48.094;11.288;2023-04-15T03:08:49;4.33;;;3.20;;
12332;SDS011;6232;48.094;11.288;2023-04-15T03:11:35;4.57;;;2.83;;
12332;SDS011;6232;48.094;11.288;2023-04-15T03:14:24;8.77;;;3.90;;
12332;SDS011;6232;48.094;11.288;2023-04-15T03:17:10;3.20;;;2.90;;
12332;SDS011;6232;48.094;11.288;2023-04-15T03:19:55;3.93;;;3.53;;
12332;SDS011;6232;48.094;11.288;2023-04-15T03:22:41;8.70;;;3.03;;
12332;SDS011;6232;48.094;11.288;2023-04-15T03:25:26;3.27;;;2.90;;
12332;SDS011;6232;48.094;11.288;2023-04-15T03:28:12;4.90;;;3.37;;
12332;SDS011;6232;48.094;11.288;2023-04-15T03:30:58;4.00;;;3.20;;
12332;SDS011;6232;48.094;11.288;2023-04-15T03:33:43;5.33;;;3.00;;
12332;SDS011;6232;48.094;11.288;2023-04-15T03:36:29;2.63;;;2.43;;
12332;SDS011;6232;48.094;11.288;2023-04-15T03:39:17;6.10;;;2.63;;
12332;SDS011;6232;48.094;11.288;2023-04-15T03:42:02;6.40;;;3.03;;
12332;SDS011;6232;48.094;11.288;2023-04-15T03:44:48;4.93;;;2.37;;
12332;SDS011;6232;48.094;11.288;2023-04-15T03:47:33;5.60;;;2.87;;
12332;SDS011;6232;48.094;11.288;2023-04-15T03:50:19;2.47;;;2.27;;
12332;SDS011;6232;48.094;11.288;2023-04-15T03:53:05;5.03;;;2.63;;
12332;SDS011;6232;48.094;11.288;2023-04-15T03:55:50;8.43;;;2.67;;
12332;SDS011;6232;48.094;11.288;2023-04-15T03:58:36;3.40;;;2.40;;
12332;SDS011;6232;48.094;11.288;2023-04-15T04:01:22;3.70;;;3.10;;
12332;SDS011;6232;48.094;11.288;2023-04-15T04:04:07;3.53;;;2.80;;
12332;SDS011;6232;48.094;11.288;2023-04-15T04:06:53;2.83;;;2.57;;
12332;SDS011;6232;48.094;11.288;2023-04-15T04:09:38;9.00;;;2.43;;
12332;SDS011;6232;48.094;11.288;2023-04-15T04:12:25;3.43;;;2.50;;
12332;SDS011;6232;48.094;11.288;2023-04-15T04:15:11;4.87;;;2.70;;
12332;SDS011;6232;48.094;11.288;2023-04-15T04:17:57;6.43;;;2.87;;
12332;SDS011;6232;48.094;11.288;2023-04-15T04:20:42;3.40;;;2.53;;
12332;SDS011;6232;48.094;11.288;2023-04-15T04:23:28;4.80;;;2.80;;
12332;SDS011;6232;48.094;11.288;2023-04-15T04:26:13;5.90;;;3.30;;
12332;SDS011;6232;48.094;11.288;2023-04-15T04:28:59;7.70;;;3.23;;
12332;SDS011;6232;48.094;11.288;2023-04-15T04:31:44;3.70;;;2.90;;
12332;SDS011;6232;48.094;11.288;2023-04-15T04:34:31;5.93;;;2.53;;
12332;SDS011;6232;48.094;11.288;2023-04-15T04:37:16;3.03;;;2.30;;
12332;SDS011;6232;48.094;11.288;2023-04-15T04:40:02;3.27;;;2.13;;
12332;SDS011;6232;48.094;11.288;2023-04-15T04:42:48;3.93;;;3.50;;
12332;SDS011;6232;48.094;11.288;2023-04-15T04:45:33;5.97;;;2.80;;
12332;SDS011;6232;48.094;11.288;2023-04-15T04:48:19;2.27;;;2.03;;
12332;SDS011;6232;48.094;11.288;2023-04-15T04:51:04;2.93;;;2.67;;
12332;SDS011;6232;48.094;11.288;2023-04-15T04:53:50;7.80;;;2.43;;
12332;SDS011;6232;48.094;11.288;2023-04-15T04:56:35;3.10;;;2.80;;
12332;SDS011;6232;48.094;11.288;2023-04-15T04:59:23;4.10;;;2.93;;
12332;SDS011;6232;48.094;11.288;2023-04-15T05:02:09;4.40;;;2.70;;
12332;SDS011;6232;48.094;11.288;2023-04-15T05:04:54;2.53;;;2.33;;
12332;SDS011;6232;48.094;11.288;2023-04-15T05:07:40;5.13;;;2.47;;
12332;SDS011;6232;48.094;11.288;2023-04-15T05:10:26;2.83;;;2.47;;
12332;SDS011;6232;48.094;11.288;2023-04-15T05:13:11;6.80;;;2.73;;
12332;SDS011;6232;48.094;11.288;2023-04-15T05:15:57;3.83;;;2.87;;
12332;SDS011;6232;48.094;11.288;2023-04-15T05:18:43;4.23;;;2.90;;
12332;SDS011;6232;48.094;11.288;2023-04-15T05:21:28;9.43;;;2.50;;
12332;SDS011;6232;48.094;11.288;2023-04-15T05:24:14;5.00;;;2.73;;
12332;SDS011;6232;48.094;11.288;2023-04-15T05:27:00;5.33;;;2.70;;
12332;SDS011;6232;48.094;11.288;2023-04-15T05:29:46;4.37;;;2.40;;
12332;SDS011;6232;48.094;11.288;2023-04-15T05:32:31;4.70;;;2.83;;
12332;SDS011;6232;48.094;11.288;2023-04-15T05:35:17;4.03;;;2.37;;
12332;SDS011;6232;48.094;11.288;2023-04-15T05:38:03;2.27;;;2.07;;
12332;SDS011;6232;48.094;11.288;2023-04-15T05:40:48;6.20;;;2.63;;
12332;SDS011;6232;48.094;11.288;2023-04-15T05:43:34;2.93;;;2.27;;
12332;SDS011;6232;48.094;11.288;2023-04-15T05:46:20;2.87;;;1.93;;
12332;SDS011;6232;48.094;11.288;2023-04-15T05:49:05;2.40;;;2.03;;
12332;SDS011;6232;48.094;11.288;2023-04-15T05:51:51;6.93;;;2.60;;
12332;SDS011;6232;48.094;11.288;2023-04-15T05:54:36;3.17;;;2.57;;
12332;SDS011;6232;48.094;11.288;2023-04-15T05:57:22;2.30;;;2.10;;
12332;SDS011;6232;48.094;11.288;2023-04-15T06:00:08;7.70;;;2.77;;
12332;SDS011;6232;48.094;11.288;2023-04-15T06:02:55;6.20;;;2.00;;
12332;SDS011;6232;48.094;11.288;2023-04-15T06:05:40;2.10;;;1.90;;
12332;SDS011;6232;48.094;11.288;2023-04-15T06:08:26;5.80;;;2.03;;
12332;SDS011;6232;48.094;11.288;2023-04-15T06:11:12;2.33;;;1.77;;
12332;SDS011;6232;48.094;11.288;2023-04-15T06:13:57;2.70;;;2.50;;
12332;SDS011;6232;48.094;11.288;2023-04-15T06:16:43;2.73;;;2.50;;
12332;SDS011;6232;48.094;11.288;2023-04-15T06:19:28;3.23;;;1.80;;
12332;SDS011;6232;48.094;11.288;2023-04-15T06:22:14;2.00;;;1.77;;
12332;SDS011;6232;48.094;11.288;2023-04-15T06:25:00;4.87;;;2.30;;
12332;SDS011;6232;48.094;11.288;2023-04-15T06:27:45;2.70;;;2.00;;
12332;SDS011;6232;48.094;11.288;2023-04-15T06:30:31;3.20;;;2.33;;
12332;SDS011;6232;48.094;11.288;2023-04-15T06:33:17;4.67;;;2.10;;
12332;SDS011;6232;48.094;11.288;2023-04-15T06:36:02;2.37;;;1.80;;
12332;SDS011;6232;48.094;11.288;2023-04-15T06:38:48;4.00;;;2.10;;
12332;SDS011;6232;48.094;11.288;2023-04-15T06:41:33;5.33;;;2.07;;
12332;SDS011;6232;48.094;11.288;2023-04-15T06:44:19;2.80;;;1.90;;
12332;SDS011;6232;48.094;11.288;2023-04-15T06:47:05;7.10;;;2.27;;
12332;SDS011;6232;48.094;11.288;2023-04-15T06:49:51;1.60;;;1.50;;
12332;SDS011;6232;48.094;11.288;2023-04-15T06:52:36;3.37;;;1.80;;
12332;SDS011;6232;48.094;11.288;2023-04-15T06:55:22;2.90;;;1.80;;
12332;SDS011;6232;48.094;11.288;2023-04-15T06:58:07;2.40;;;2.13;;
12332;SDS011;6232;48.094;11.288;2023-04-15T07:00:53;5.73;;;1.87;;
12332;SDS011;6232;48.094;11.288;2023-04-15T07:03:39;3.83;;;1.97;;
12332;SDS011;6232;48.094;11.288;2023-04-15T07:06:24;4.97;;;2.53;;
12332;SDS011;6232;48.094;11.288;2023-04-15T07:09:11;6.30;;;2.07;;
12332;SDS011;6232;48.094;11.288;2023-04-15T07:11:56;2.33;;;1.80;;
12332;SDS011;6232;48.094;11.288;2023-04-15T07:14:42;1.77;;;1.67;;
12332;SDS011;6232;48.094;11.288;2023-04-15T07:17:28;2.43;;;2.23;;
12332;SDS011;6232;48.094;11.288;2023-04-15T07:20:13;2.77;;;1.87;;
12332;SDS011;6232;48.094;11.288;2023-04-15T07:22:59;4.20;;;2.37;;
12332;SDS011;6232;48.094;11.288;2023-04-15T07:25:44;3.90;;;1.47;;
12332;SDS011;6232;48.094;11.288;2023-04-15T07:28:30;1.73;;;1.63;;
12332;SDS011;6232;48.094;11.288;2023-04-15T07:31:16;1.90;;;1.80;;
12332;SDS011;6232;48.094;11.288;2023-04-15T07:34:02;1.80;;;1.70;;
12332;SDS011;6232;48.094;11.288;2023-04-15T07:36:48;2.00;;;1.90;;
12332;SDS011;6232;48.094;11.288;2023-04-15T07:39:34;2.80;;;1.70;;
12332;SDS011;6232;48.094;11.288;2023-04-15T07:42:21;3.33;;;2.00;;
12332;SDS011;6232;48.094;11.288;2023-04-15T07:45:07;3.17;;;1.60;;
12332;SDS011;6232;48.094;11.288;2023-04-15T07:47:53;3.90;;;2.10;;
12332;SDS011;6232;48.094;11.288;2023-04-15T07:50:40;1.70;;;1.60;;
12332;SDS011;6232;48.094;11.288;2023-04-15T07:53:25;3.73;;;2.40;;
12332;SDS011;6232;48.094;11.288;2023-04-15T07:56:11;1.40;;;1.40;;
12332;SDS011;6232;48.094;11.288;2023-04-15T07:58:57;1.97;;;1.80;;
12332;SDS011;6232;48.094;11.288;2023-04-15T08:01:42;2.17;;;1.70;;
12332;SDS011;6232;48.094;11.288;2023-04-15T08:04:28;1.90;;;1.70;;
12332;SDS011;6232;48.094;11.288;2023-04-15T08:07:13;2.53;;;1.97;;
12332;SDS011;6232;48.094;11.288;2023-04-15T08:10:00;5.27;;;2.00;;
12332;SDS011;6232;48.094;11.288;2023-04-15T08:12:45;5.23;;;1.93;;
12332;SDS011;6232;48.094;11.288;2023-04-15T08:15:33;2.23;;;2.03;;
12332;SDS011;6232;48.094;11.288;2023-04-15T08:18:19;6.10;;;1.93;;
12332;SDS011;6232;48.094;11.288;2023-04-15T08:21:04;2.83;;;1.90;;
12332;SDS011;6232;48.094;11.288;2023-04-15T08:23:51;2.80;;;2.43;;
12332;SDS011;6232;48.094;11.288;2023-04-15T08:26:36;2.90;;;1.90;;
12332;SDS011;6232;48.094;11.288;2023-04-15T08:29:22;6.50;;;2.23;;
12332;SDS011;6232;48.094;11.288;2023-04-15T08:32:08;3.23;;;2.10;;
12332;SDS011;6232;48.094;11.288;2023-04-15T08:34:53;2.53;;;2.10;;
12332;SDS011;6232;48.094;11.288;2023-04-15T08:37:39;7.03;;;2.90;;
12332;SDS011;6232;48.094;11.288;2023-04-15T08:40:25;3.60;;;2.10;;
12332;SDS011;6232;48.094;11.288;2023-04-15T08:43:22;7.60;;;2.60;;
12332;SDS011;6232;48.094;11.288;2023-04-15T08:46:12;2.27;;;2.03;;
12332;SDS011;6232;48.094;11.288;2023-04-15T08:48:58;2.17;;;1.97;;
12332;SDS011;6232;48.094;11.288;2023-04-15T08:51:43;4.33;;;2.40;;
12332;SDS011;6232;48.094;11.288;2023-04-15T08:54:29;2.50;;;2.07;;
12332;SDS011;6232;48.094;11.288;2023-04-15T08:57:15;3.47;;;2.40;;
12332;SDS011;6232;48.094;11.288;2023-04-15T09:00:01;8.10;;;2.67;;
12332;SDS011;6232;48.094;11.288;2023-04-15T09:02:48;6.83;;;2.60;;
12332;SDS011;6232;48.094;11.288;2023-04-15T09:05:37;3.57;;;2.43;;
12332;SDS011;6232;48.094;11.288;2023-04-15T09:08:22;6.40;;;3.00;;
12332;SDS011;6232;48.094;11.288;2023-04-15T09:11:08;3.33;;;2.80;;
12332;SDS011;6232;48.094;11.288;2023-04-15T09:13:53;5.70;;;3.37;;
12332;SDS011;6232;48.094;11.288;2023-04-15T09:16:55;3.70;;;2.90;;
12332;SDS011;6232;48.094;11.288;2023-04-15T09:19:40;5.83;;;2.70;;
12332;SDS011;6232;48.094;11.288;2023-04-15T09:22:30;3.87;;;2.87;;
12332;SDS011;6232;48.094;11.288;2023-04-15T09:28:08;4.83;;;3.13;;
12332;SDS011;6232;48.094;11.288;2023-04-15T09:30:55;6.40;;;2.80;;
12332;SDS011;6232;48.094;11.288;2023-04-15T09:33:53;8.00;;;2.50;;
12332;SDS011;6232;48.094;11.288;2023-04-15T09:39:46;9.10;;;3.10;;
12332;SDS011;6232;48.094;11.288;2023-04-15T09:42:32;4.00;;;2.87;;
12332;SDS011;6232;48.094;11.288;2023-04-15T09:45:18;6.80;;;3.00;;
12332;SDS011;6232;48.094;11.288;2023-04-15T09:51:19;2.97;;;2.77;;
12332;SDS011;6232;48.094;11.288;2023-04-15T09:54:18;3.80;;;2.53;;
12332;SDS011;6232;48.094;11.288;2023-04-15T09:57:06;5.27;;;2.40;;
12332;SDS011;6232;48.094;11.288;2023-04-15T09:59:51;4.67;;;3.40;;
12332;SDS011;6232;48.094;11.288;2023-04-15T10:02:38;5.57;;;3.07;;
12332;SDS011;6232;48.094;11.288;2023-04-15T10:05:24;3.90;;;3.60;;
12332;SDS011;6232;48.094;11.288;2023-04-15T10:08:11;10.20;;;3.60;;
12332;SDS011;6232;48.094;11.288;2023-04-15T10:10:57;6.33;;;2.90;;
12332;SDS011;6232;48.094;11.288;2023-04-15T10:13:42;4.33;;;3.10;;
12332;SDS011;6232;48.094;11.288;2023-04-15T10:16:29;2.97;;;2.57;;
12332;SDS011;6232;48.094;11.288;2023-04-15T10:19:17;4.30;;;3.00;;
12332;SDS011;6232;48.094;11.288;2023-04-15T10:22:05;3.70;;;3.20;;
12332;SDS011;6232;48.094;11.288;2023-04-15T10:24:51;3.37;;;2.83;;
12332;SDS011;6232;48.094;11.288;2023-04-15T10:27:38;4.70;;;3.17;;
12332;SDS011;6232;48.094;11.288;2023-04-15T10:30:25;4.20;;;2.90;;
12332;SDS011;6232;48.094;11.288;2023-04-15T10:33:10;4.33;;;2.93;;
12332;SDS011;6232;48.094;11.288;2023-04-15T10:35:56;4.33;;;2.40;;
12332;SDS011;6232;48.094;11.288;2023-04-15T10:38:43;4.00;;;3.17;;
12332;SDS011;6232;48.094;11.288;2023-04-15T10:41:29;6.57;;;3.10;;
12332;SDS011;6232;48.094;11.288;2023-04-15T10:44:15;4.10;;;3.30;;
12332;SDS011;6232;48.094;11.288;2023-04-15T10:47:03;4.43;;;2.90;;
12332;SDS011;6232;48.094;11.288;2023-04-15T10:49:50;4.40;;;2.87;;
12332;SDS011;6232;48.094;11.288;2023-04-15T10:52:38;4.90;;;3.00;;
12332;SDS011;6232;48.094;11.288;2023-04-15T10:55:25;3.73;;;2.80;;
12332;SDS011;6232;48.094;11.288;2023-04-15T10:58:11;9.90;;;3.20;;
12332;SDS011;6232;48.094;11.288;2023-04-15T11:00:59;5.20;;;3.73;;
12332;SDS011;6232;48.094;11.288;2023-04-15T11:03:46;5.43;;;2.97;;
12332;SDS011;6232;48.094;11.288;2023-04-15T11:06:44;5.53;;;3.53;;
12332;SDS011;6232;48.094;11.288;2023-04-15T11:09:30;4.50;;;2.67;;
12332;SDS011;6232;48.094;11.288;2023-04-15T11:12:17;5.37;;;2.90;;
12332;SDS011;6232;48.094;11.288;2023-04-15T11:18:14;10.67;;;3.47;;
12332;SDS011;6232;48.094;11.288;2023-04-15T11:21:01;6.67;;;2.77;;
12332;SDS011;6232;48.094;11.288;2023-04-15T11:23:47;4.43;;;3.40;;
12332;SDS011;6232;48.094;11.288;2023-04-15T11:26:33;7.60;;;3.50;;
12332;SDS011;6232;48.094;11.288;2023-04-15T11:29:19;5.73;;;3.90;;
12332;SDS011;6232;48.094;11.288;2023-04-15T11:32:05;5.00;;;3.60;;
12332;SDS011;6232;48.094;11.288;2023-04-15T11:34:51;4.67;;;3.27;;
12332;SDS011;6232;48.094;11.288;2023-04-15T11:37:37;6.40;;;3.33;;
12332;SDS011;6232;48.094;11.288;2023-04-15T11:40:28;4.83;;;3.50;;
12332;SDS011;6232;48.094;11.288;2023-04-15T11:43:15;9.40;;;3.60;;
12332;SDS011;6232;48.094;11.288;2023-04-15T11:46:01;5.70;;;3.60;;
12332;SDS011;6232;48.094;11.288;2023-04-15T11:48:47;3.63;;;3.07;;
12332;SDS011;6232;48.094;11.288;2023-04-15T11:51:33;4.10;;;3.50;;
12332;SDS011;6232;48.094;11.288;2023-04-15T11:54:22;6.00;;;3.63;;
12332;SDS011;6232;48.094;11.288;2023-04-15T11:57:08;4.50;;;3.43;;
12332;SDS011;6232;48.094;11.288;2023-04-15T11:59:54;5.20;;;4.00;;
12332;SDS011;6232;48.094;11.288;2023-04-15T12:02:39;5.93;;;5.30;;
12332;SDS011;6232;48.094;11.288;2023-04-15T12:05:25;8.00;;;4.70;;
12332;SDS011;6232;48.094;11.288;2023-04-15T12:08:11;4.80;;;4.23;;
12332;SDS011;6232;48.094;11.288;2023-04-15T12:10:58;7.20;;;6.30;;
12332;SDS011;6232;48.094;11.288;2023-04-15T12:13:44;6.37;;;4.97;;
12332;SDS011;6232;48.094;11.288;2023-04-15T12:16:30;6.63;;;4.80;;
12332;SDS011;6232;48.094;11.288;2023-04-15T12:19:21;4.83;;;4.30;;
12332;SDS011;6232;48.094;11.288;2023-04-15T12:22:11;9.60;;;6.73;;
12332;SDS011;6232;48.094;11.288;2023-04-15T12:24:56;13.03;;;6.37;;
12332;SDS011;6232;48.094;11.288;2023-04-15T12:27:49;17.93;;;8.47;;
12332;SDS011;6232;48.094;11.288;2023-04-15T12:30:35;5.80;;;4.60;;
12332;SDS011;6232;48.094;11.288;2023-04-15T12:33:20;5.70;;;4.70;;
12332;SDS011;6232;48.094;11.288;2023-04-15T12:36:06;6.20;;;4.60;;
12332;SDS011;6232;48.094;11.288;2023-04-15T12:38:51;6.43;;;4.80;;
12332;SDS011;6232;48.094;11.288;2023-04-15T12:41:37;5.93;;;3.77;;
12332;SDS011;6232;48.094;11.288;2023-04-15T12:44:23;5.57;;;5.07;;
12332;SDS011;6232;48.094;11.288;2023-04-15T12:47:08;5.67;;;4.23;;
12332;SDS011;6232;48.094;11.288;2023-04-15T12:49:54;4.57;;;3.47;;
12332;SDS011;6232;48.094;11.288;2023-04-15T12:52:40;7.70;;;4.37;;
12332;SDS011;6232;48.094;11.288;2023-04-15T12:55:25;9.97;;;4.03;;
12332;SDS011;6232;48.094;11.288;2023-04-15T12:58:11;9.00;;;4.33;;
12332;SDS011;6232;48.094;11.288;2023-04-15T13:00:57;4.10;;;3.63;;
12332;SDS011;6232;48.094;11.288;2023-04-15T13:03:43;7.60;;;4.10;;
12332;SDS011;6232;48.094;11.288;2023-04-15T13:06:29;7.90;;;3.97;;
12332;SDS011;6232;48.094;11.288;2023-04-15T13:09:16;5.50;;;3.10;;
12332;SDS011;6232;48.094;11.288;2023-04-15T13:12:02;5.40;;;4.37;;
12332;SDS011;6232;48.094;11.288;2023-04-15T13:14:49;6.20;;;3.90;;
12332;SDS011;6232;48.094;11.288;2023-04-15T13:17:35;4.00;;;3.60;;
12332;SDS011;6232;48.094;11.288;2023-04-15T13:20:20;4.23;;;3.30;;
12332;SDS011;6232;48.094;11.288;2023-04-15T13:23:06;6.70;;;3.30;;
12332;SDS011;6232;48.094;11.288;2023-04-15T13:25:52;5.53;;;3.53;;
12332;SDS011;6232;48.094;11.288;2023-04-15T13:28:37;3.70;;;2.70;;
12332;SDS011;6232;48.094;11.288;2023-04-15T13:31:23;4.87;;;2.70;;
12332;SDS011;6232;48.094;11.288;2023-04-15T13:34:08;3.20;;;2.90;;
12332;SDS011;6232;48.094;11.288;2023-04-15T13:36:54;6.00;;;2.80;;
12332;SDS011;6232;48.094;11.288;2023-04-15T13:39:40;3.90;;;2.90;;
12332;SDS011;6232;48.094;11.288;2023-04-15T13:42:25;3.90;;;2.83;;
12332;SDS011;6232;48.094;11.288;2023-04-15T13:45:11;3.77;;;3.43;;
12332;SDS011;6232;48.094;11.288;2023-04-15T13:47:57;5.03;;;3.70;;
12332;SDS011;6232;48.094;11.288;2023-04-15T13:50:42;3.30;;;2.50;;
12332;SDS011;6232;48.094;11.288;2023-04-15T13:53:29;4.20;;;3.60;;
12332;SDS011;6232;48.094;11.288;2023-04-15T13:56:15;5.10;;;3.53;;
12332;SDS011;6232;48.094;11.288;2023-04-15T13:59:01;4.27;;;3.17;;
12332;SDS011;6232;48.094;11.288;2023-04-15T14:01:47;5.50;;;3.43;;
12332;SDS011;6232;48.094;11.288;2023-04-15T14:04:32;3.13;;;2.83;;
12332;SDS011;6232;48.094;11.288;2023-04-15T14:07:18;6.50;;;3.23;;
12332;SDS011;6232;48.094;11.288;2023-04-15T14:10:04;6.40;;;3.30;;
12332;SDS011;6232;48.094;11.288;2023-04-15T14:12:49;6.07;;;3.77;;
12332;SDS011;6232;48.094;11.288;2023-04-15T14:15:35;4.77;;;3.50;;
12332;SDS011;6232;48.094;11.288;2023-04-15T14:18:21;6.97;;;5.47;;
12332;SDS011;6232;48.094;11.288;2023-04-15T14:21:06;3.83;;;3.53;;
12332;SDS011;6232;48.094;11.288;2023-04-15T14:23:52;4.00;;;3.60;;
12332;SDS011;6232;48.094;11.288;2023-04-15T14:26:38;10.43;;;3.77;;
12332;SDS011;6232;48.094;11.288;2023-04-15T14:29:23;3.50;;;3.20;;
12332;SDS011;6232;48.094;11.288;2023-04-15T14:32:09;5.37;;;3.00;;
12332;SDS011;6232;48.094;11.288;2023-04-15T14:34:54;3.97;;;3.00;;
12332;SDS011;6232;48.094;11.288;2023-04-15T14:37:40;5.53;;;3.00;;
12332;SDS011;6232;48.094;11.288;2023-04-15T14:40:26;3.00;;;2.67;;
12332;SDS011;6232;48.094;11.288;2023-04-15T14:43:11;4.30;;;2.80;;
12332;SDS011;6232;48.094;11.288;2023-04-15T14:45:57;6.70;;;2.50;;
12332;SDS011;6232;48.094;11.288;2023-04-15T14:48:42;7.33;;;4.33;;
12332;SDS011;6232;48.094;11.288;2023-04-15T14:51:28;4.47;;;3.30;;
12332;SDS011;6232;48.094;11.288;2023-04-15T14:54:14;6.57;;;2.90;;
12332;SDS011;6232;48.094;11.288;2023-04-15T14:56:59;3.60;;;2.50;;
12332;SDS011;6232;48.094;11.288;2023-04-15T14:59:46;7.27;;;5.90;;
12332;SDS011;6232;48.094;11.288;2023-04-15T15:02:32;9.50;;;6.50;;
12332;SDS011;6232;48.094;11.288;2023-04-15T15:05:17;16.07;;;10.13;;
12332;SDS011;6232;48.094;11.288;2023-04-15T15:08:03;8.20;;;5.77;;
12332;SDS011;6232;48.094;11.288;2023-04-15T15:10:48;5.93;;;5.20;;
12332;SDS011;6232;48.094;11.288;2023-04-15T15:13:34;6.63;;;4.13;;
12332;SDS011;6232;48.094;11.288;2023-04-15T15:16:19;7.90;;;4.93;;
12332;SDS011;6232;48.094;11.288;2023-04-15T15:19:05;7.30;;;3.70;;
12332;SDS011;6232;48.094;11.288;2023-04-15T15:21:51;4.40;;;3.80;;
12332;SDS011;6232;48.094;11.288;2023-04-15T15:24:37;4.17;;;3.50;;
12332;SDS011;6232;48.094;11.288;2023-04-15T15:27:22;4.90;;;3.63;;
12332;SDS011;6232;48.094;11.288;2023-04-15T15:30:08;2.50;;;2.30;;
12332;SDS011;6232;48.094;11.288;2023-04-15T15:32:54;7.33;;;3.20;;
12332;SDS011;6232;48.094;11.288;2023-04-15T15:35:39;6.57;;;3.40;;
12332;SDS011;6232;48.094;11.288;2023-04-15T15:38:25;4.90;;;3.53;;
12332;SDS011;6232;48.094;11.288;2023-04-15T15:41:23;5.60;;;3.27;;
12332;SDS011;6232;48.094;11.288;2023-04-15T15:47:40;4.10;;;3.27;;
12332;SDS011;6232;48.094;11.288;2023-04-15T15:50:26;4.27;;;3.37;;
12332;SDS011;6232;48.094;11.288;2023-04-15T15:53:12;3.20;;;3.00;;
12332;SDS011;6232;48.094;11.288;2023-04-15T15:56:03;3.77;;;3.20;;
12332;SDS011;6232;48.094;11.288;2023-04-15T15:58:49;4.27;;;2.80;;
12332;SDS011;6232;48.094;11.288;2023-04-15T16:01:34;3.93;;;3.63;;
12332;SDS011;6232;48.094;11.288;2023-04-15T16:04:20;3.73;;;3.40;;
12332;SDS011;6232;48.094;11.288;2023-04-15T16:07:06;4.10;;;3.80;;
12332;SDS011;6232;48.094;11.288;2023-04-15T16:09:53;7.70;;;3.80;;
12332;SDS011;6232;48.094;11.288;2023-04-15T16:12:38;6.07;;;4.50;;
12332;SDS011;6232;48.094;11.288;2023-04-15T16:15:25;6.30;;;3.50;;
12332;SDS011;6232;48.094;11.288;2023-04-15T16:18:11;3.60;;;3.30;;
12332;SDS011;6232;48.094;11.288;2023-04-15T16:20:59;3.00;;;2.80;;
12332;SDS011;6232;48.094;11.288;2023-04-15T16:23:48;3.30;;;2.90;;
12332;SDS011;6232;48.094;11.288;2023-04-15T16:30:16;7.03;;;4.70;;
12332;SDS011;6232;48.094;11.288;2023-04-15T16:33:02;7.40;;;5.47;;
12332;SDS011;6232;48.094;11.288;2023-04-15T16:35:48;4.53;;;3.40;;
12332;SDS011;6232;48.094;11.288;2023-04-15T16:38:33;4.10;;;3.70;;
12332;SDS011;6232;48.094;11.288;2023-04-15T16:41:19;3.60;;;3.30;;
12332;SDS011;6232;48.094;11.288;2023-04-15T16:44:05;6.43;;;3.83;;
12332;SDS011;6232;48.094;11.288;2023-04-15T16:46:52;5.40;;;3.57;;
12332;SDS011;6232;48.094;11.288;2023-04-15T16:49:38;6.30;;;4.00;;
12332;SDS011;6232;48.094;11.288;2023-04-15T16:52:27;7.50;;;3.17;;
12332;SDS011;6232;48.094;11.288;2023-04-15T16:55:13;5.70;;;3.60;;
12332;SDS011;6232;48.094;11.288;2023-04-15T16:57:58;4.03;;;3.63;;
12332;SDS011;6232;48.094;11.288;2023-04-15T17:00:44;10.53;;;4.53;;